Time;durP1;ratioP1;P1;durP2;ratioP2;P2;SDS_P1;SDS_P2;PMS_P1;PMS_P2;Temp;Humidity;BMP_temperature;BMP_pressure;BME280_temperature;BME280_humidity;BME280_pressure;Samples;Min_cycle;Max_cycle;Signal;HPM_P1;HPM_P2
2023/08/19 00:02:24;;;;;;;11.75;9.23;;;;;;;22.22;85.02;101593.38;7387355;19;20018;-65
2023/08/19 00:04:51;;;;;;;12.68;9.63;;;;;;;22.22;84.88;101582.59;7390750;19;20023;-65
2023/08/19 00:07:19;;;;;;;16.58;10.15;;;;;;;22.22;85.21;101585.28;7388223;19;20044;-66
2023/08/19 00:09:46;;;;;;;12.65;10.00;;;;;;;22.21;84.96;101582.75;7391924;19;20372;-66
2023/08/19 00:12:14;;;;;;;13.52;10.02;;;;;;;22.21;84.98;101582.75;7389064;19;20022;-66
2023/08/19 00:14:41;;;;;;;11.88;9.45;;;;;;;22.20;85.20;101573.81;7390981;19;20098;-66
2023/08/19 00:17:09;;;;;;;14.05;10.70;;;;;;;22.21;84.63;101574.66;7390745;19;20031;-66
2023/08/19 00:19:36;;;;;;;13.95;10.07;;;;;;;22.19;84.95;101568.59;7390808;19;20388;-67
2023/08/19 00:22:04;;;;;;;13.30;10.10;;;;;;;22.21;84.94;101569.25;7389918;19;20029;-67
2023/08/19 00:24:31;;;;;;;14.43;11.13;;;;;;;22.22;85.14;101558.31;7391885;19;20018;-67
2023/08/19 00:27:00;;;;;;;13.65;10.80;;;;;;;22.23;84.84;101569.94;7389921;19;20022;-67
2023/08/19 00:29:28;;;;;;;15.57;11.18;;;;;;;22.23;84.67;101573.47;7393122;19;20015;-67
2023/08/19 00:31:55;;;;;;;14.68;10.90;;;;;;;22.23;84.39;101572.63;7396257;19;20049;-66
2023/08/19 00:34:23;;;;;;;13.45;10.80;;;;;;;22.22;84.86;101570.97;7399419;19;20035;-66
2023/08/19 00:36:51;;;;;;;13.10;10.20;;;;;;;22.22;84.69;101565.56;7397446;19;20014;-66
2023/08/19 00:39:18;;;;;;;14.15;10.80;;;;;;;22.21;84.37;101564.72;7398353;19;20588;-66
2023/08/19 00:41:45;;;;;;;13.38;10.18;;;;;;;22.21;84.39;101561.16;7395024;19;20487;-67
2023/08/19 00:44:13;;;;;;;13.35;10.43;;;;;;;22.23;84.61;101562.69;7401820;19;20018;-66
2023/08/19 00:46:41;;;;;;;14.27;10.65;;;;;;;22.22;84.61;101552.91;7395469;19;20017;-66
2023/08/19 00:49:09;;;;;;;12.80;10.38;;;;;;;22.23;84.14;101556.44;7397905;19;20018;-66
2023/08/19 00:51:36;;;;;;;15.35;10.25;;;;;;;22.23;84.18;101553.75;7395435;19;20030;-66
2023/08/19 00:54:04;;;;;;;12.73;9.85;;;;;;;22.20;84.15;101559.47;7396038;19;20345;-66
2023/08/19 00:56:31;;;;;;;12.18;9.70;;;;;;;22.15;84.07;101554.59;7397277;19;20492;-66
2023/08/19 00:58:59;;;;;;;13.10;10.32;;;;;;;22.09;84.85;101555.22;7399060;19;20022;-66
2023/08/19 01:01:26;;;;;;;13.82;10.48;;;;;;;22.04;84.92;101561.13;7393962;19;20015;-66
2023/08/19 01:03:54;;;;;;;14.13;10.80;;;;;;;22.01;84.65;101549.84;7395829;19;20018;-67
2023/08/19 01:06:26;;;;;;;13.85;10.52;;;;;;;22.03;85.07;101545.13;7395509;19;20044;-67
2023/08/19 01:09:11;;;;;;;12.48;10.45;;;;;;;21.95;85.18;101548.66;7397265;19;20018;-66
2023/08/19 01:11:57;;;;;;;12.13;9.80;;;;;;;21.96;85.19;101547.66;7395131;19;20018;-66
2023/08/19 01:14:25;;;;;;;13.32;10.40;;;;;;;22.02;84.74;101549.69;7396487;19;20014;-67
2023/08/19 01:16:53;;;;;;;12.43;10.65;;;;;;;22.05;84.01;101541.22;7396194;19;20038;-67
2023/08/19 01:19:31;;;;;;;12.95;9.52;;;;;;;22.09;83.81;101544.44;7396491;19;20018;-67
2023/08/19 01:22:11;;;;;;;12.18;10.68;;;;;;;22.09;84.17;101544.44;7394772;19;20019;-66
2023/08/19 01:24:40;;;;;;;14.63;10.95;;;;;;;21.98;84.58;101542.06;7397178;19;20086;-66
2023/08/19 01:27:23;;;;;;;13.60;10.93;;;;;;;21.99;84.06;101535.69;7395771;19;20015;-67
2023/08/19 01:29:51;;;;;;;14.07;11.32;;;;;;;21.88;84.91;101531.47;7395258;19;20018;-67
2023/08/19 01:32:20;;;;;;;12.73;9.90;;;;;;;21.84;84.61;101536.34;7395799;19;20214;-67
2023/08/19 01:34:49;;;;;;;12.52;10.20;;;;;;;21.85;84.81;101529.09;7397182;19;20017;-67
2023/08/19 01:37:30;;;;;;;14.18;11.18;;;;;;;21.90;84.54;101534.81;7395489;19;20023;-67
2023/08/19 01:40:00;;;;;;;13.80;10.85;;;;;;;21.83;84.74;101531.13;7394241;19;20513;-69
2023/08/19 01:42:30;;;;;;;12.63;10.63;;;;;;;21.82;84.84;101540.22;7394008;19;20044;-65
2023/08/19 01:44:58;;;;;;;15.02;11.35;;;;;;;21.82;84.56;101532.97;7395961;19;20019;-66
2023/08/19 01:47:25;;;;;;;15.05;11.68;;;;;;;21.83;84.30;101528.44;7394918;19;20015;-67
2023/08/19 01:49:53;;;;;;;14.50;11.65;;;;;;;21.80;83.97;101532.31;7394273;19;20360;-66
2023/08/19 01:52:20;;;;;;;13.48;11.45;;;;;;;21.76;84.42;101527.41;7396012;19;20018;-66
2023/08/19 01:54:48;;;;;;;16.80;11.85;;;;;;;21.73;84.33;101525.91;7394151;19;20022;-66
2023/08/19 01:57:15;;;;;;;14.60;11.48;;;;;;;21.74;84.60;101535.66;7393450;19;20018;-66
2023/08/19 01:59:43;;;;;;;15.60;12.95;;;;;;;21.75;84.17;101534.66;7398791;19;20024;-66
2023/08/19 02:02:10;;;;;;;16.70;14.00;;;;;;;21.66;84.29;101539.19;7393735;19;20373;-67
2023/08/19 02:04:37;;;;;;;14.45;12.57;;;;;;;21.65;84.23;101531.28;7394873;19;20563;-66
2023/08/19 02:07:05;;;;;;;14.70;11.63;;;;;;;21.66;84.43;101539.19;7392951;19;20352;-66
2023/08/19 02:09:32;;;;;;;15.95;13.55;;;;;;;21.61;84.41;101536.16;7395171;19;20022;-65
2023/08/19 02:12:00;;;;;;;14.93;11.80;;;;;;;21.53;84.86;101535.31;7392636;19;20035;-66
2023/08/19 02:14:28;;;;;;;21.85;11.93;;;;;;;21.57;84.42;101532.09;7395283;19;20040;-65
2023/08/19 02:16:55;;;;;;;12.30;10.88;;;;;;;21.54;84.46;101532.44;7393778;19;20018;-66
2023/08/19 02:19:23;;;;;;;14.57;11.88;;;;;;;21.56;84.54;101532.25;7395609;19;20018;-66
2023/08/19 02:21:50;;;;;;;14.90;12.35;;;;;;;21.55;84.25;101533.28;7392523;19;20018;-67
2023/08/19 02:24:18;;;;;;;13.07;11.55;;;;;;;21.52;84.58;101530.91;7393039;19;20014;-67
2023/08/19 02:26:45;;;;;;;14.05;12.55;;;;;;;21.47;84.10;101528.72;7394446;19;20026;-67
2023/08/19 02:29:12;;;;;;;15.57;12.60;;;;;;;21.39;84.74;101526.00;7395216;19;20210;-66
2023/08/19 02:31:40;;;;;;;15.27;12.70;;;;;;;21.31;84.94;101523.25;7395339;19;20026;-66
2023/08/19 02:34:08;;;;;;;15.75;12.43;;;;;;;21.36;84.62;101527.16;7394237;19;20526;-66
2023/08/19 02:36:35;;;;;;;14.52;11.27;;;;;;;21.40;84.39;101527.69;7394175;19;20086;-66
2023/08/19 02:39:03;;;;;;;16.05;12.55;;;;;;;21.39;84.57;101529.53;7394349;19;20432;-66
2023/08/19 02:41:30;;;;;;;13.73;11.60;;;;;;;21.32;84.54;101528.47;7392761;19;20010;-66
2023/08/19 02:43:57;;;;;;;14.07;12.32;;;;;;;21.31;84.90;101528.66;7393064;19;20507;-66
2023/08/19 02:46:25;;;;;;;14.95;12.52;;;;;;;21.23;84.70;101521.38;7392874;19;20018;-66
2023/08/19 02:48:52;;;;;;;17.25;12.93;;;;;;;21.24;84.71;101528.47;7394608;19;20022;-67
2023/08/19 02:51:20;;;;;;;14.57;11.63;;;;;;;21.25;84.38;101524.75;7391724;19;20350;-67
2023/08/19 02:53:47;;;;;;;13.63;11.40;;;;;;;21.27;84.36;101530.00;7393789;19;20404;-66
2023/08/19 02:56:14;;;;;;;16.58;12.48;;;;;;;21.25;84.98;101526.59;7392113;19;20029;-66
2023/08/19 02:58:42;;;;;;;16.80;13.70;;;;;;;21.24;84.42;101533.84;7395148;19;20014;-66
2023/08/19 03:01:13;;;;;;;16.52;13.52;;;;;;;21.23;85.10;101539.41;7392686;19;20030;-66
2023/08/19 03:03:40;;;;;;;13.55;11.75;;;;;;;21.27;84.69;101532.69;7391561;19;20508;-66
2023/08/19 03:06:08;;;;;;;14.05;11.98;;;;;;;21.27;84.31;101535.38;7391759;19;20040;-66
2023/08/19 03:08:35;;;;;;;15.57;12.50;;;;;;;21.17;84.35;101535.50;7392778;19;20014;-66
2023/08/19 03:11:03;;;;;;;16.30;12.82;;;;;;;21.10;84.91;101532.63;7392134;19;20081;-66
2023/08/19 03:13:30;;;;;;;13.90;12.38;;;;;;;21.07;85.15;101524.88;7392948;19;20015;-67
2023/08/19 03:16:03;;;;;;;15.45;12.20;;;;;;;21.08;84.91;101528.41;7392422;19;20512;-67
2023/08/19 03:18:30;;;;;;;16.52;13.23;;;;;;;21.12;84.96;101519.84;7392517;19;20459;-67
2023/08/19 03:20:58;;;;;;;14.35;12.23;;;;;;;21.17;84.13;101530.94;7390631;19;20018;-67
2023/08/19 03:23:26;;;;;;;16.83;13.18;;;;;;;21.10;84.54;101524.56;7392800;19;20509;-67
2023/08/19 03:25:54;;;;;;;16.17;14.25;;;;;;;21.02;84.59;101521.81;7391355;19;20496;-66
2023/08/19 03:28:22;;;;;;;14.85;13.15;;;;;;;21.03;85.24;101528.06;7392779;19;20395;-66
2023/08/19 03:30:50;;;;;;;15.27;13.15;;;;;;;21.04;84.92;101525.19;7391041;19;20105;-66
2023/08/19 03:33:17;;;;;;;17.30;14.20;;;;;;;21.04;84.68;101529.75;7391370;19;20022;-67
2023/08/19 03:35:45;;;;;;;16.05;14.30;;;;;;;21.02;84.78;101526.34;7391862;19;20036;-67
2023/08/19 03:38:13;;;;;;;14.98;12.77;;;;;;;20.98;84.67;101520.44;7392830;19;20021;-66
2023/08/19 03:40:41;;;;;;;14.93;12.75;;;;;;;20.99;84.72;101518.63;7391606;19;20018;-66
2023/08/19 03:43:10;;;;;;;17.05;13.18;;;;;;;20.94;84.39;101525.31;7391667;19;20018;-67
2023/08/19 03:45:37;;;;;;;18.63;13.75;;;;;;;20.95;84.20;101526.19;7392403;19;20025;-68
2023/08/19 03:48:05;;;;;;;14.73;13.13;;;;;;;20.97;84.43;101529.53;7392298;19;20047;-67
2023/08/19 03:50:32;;;;;;;15.77;13.02;;;;;;;20.93;84.22;101529.00;7392067;19;20056;-67
2023/08/19 03:53:03;;;;;;;14.95;12.93;;;;;;;20.82;84.82;101532.00;7392253;19;20022;-67
2023/08/19 03:55:30;;;;;;;15.98;12.50;;;;;;;20.82;85.21;101531.16;7390511;19;20021;-66
2023/08/19 03:57:58;;;;;;;14.50;12.95;;;;;;;20.88;84.77;101530.53;7391684;19;20019;-66
2023/08/19 04:00:26;;;;;;;14.77;12.82;;;;;;;20.92;84.47;101529.19;7389420;19;20029;-66
2023/08/19 04:02:53;;;;;;;15.57;13.70;;;;;;;20.89;84.70;101529.50;7388988;19;20019;-66
2023/08/19 04:05:21;;;;;;;15.43;13.23;;;;;;;20.88;84.35;101519.75;7390245;19;20022;-66
2023/08/19 04:07:48;;;;;;;14.70;13.10;;;;;;;20.91;84.51;101525.66;7391621;19;20026;-67
2023/08/19 04:10:17;;;;;;;15.18;13.45;;;;;;;20.90;83.83;101526.66;7390662;19;20534;-68
2023/08/19 04:12:44;;;;;;;15.88;13.35;;;;;;;20.72;84.52;101522.34;7391863;19;20022;-66
2023/08/19 04:15:12;;;;;;;17.88;15.43;;;;;;;20.72;85.20;101523.22;7390743;19;20014;-67
2023/08/19 04:17:39;;;;;;;16.10;13.68;;;;;;;20.80;84.63;101523.25;7391638;19;20030;-66
2023/08/19 04:20:08;;;;;;;15.00;13.32;;;;;;;20.83;84.42;101522.91;7390984;19;20015;-67
2023/08/19 04:22:38;;;;;;;15.77;13.43;;;;;;;20.83;84.61;101524.75;7389672;19;20019;-66
2023/08/19 04:25:07;;;;;;;16.20;14.15;;;;;;;20.84;84.02;101518.38;7388510;19;20018;-67
2023/08/19 04:27:34;;;;;;;16.50;13.95;;;;;;;20.83;84.34;101524.75;7388789;19;20044;-65
2023/08/19 04:30:03;;;;;;;19.15;15.65;;;;;;;20.81;84.24;101526.78;7391589;19;20014;-62
2023/08/19 04:32:31;;;;;;;17.75;14.77;;;;;;;20.85;84.22;101528.16;7391546;19;20096;-70
2023/08/19 04:34:58;;;;;;;17.58;15.70;;;;;;;20.91;84.19;101522.13;7392318;19;20014;-62
2023/08/19 04:37:26;;;;;;;17.95;15.05;;;;;;;20.92;84.05;101521.94;7392605;19;20019;-64
2023/08/19 04:39:53;;;;;;;20.17;14.70;;;;;;;20.92;84.12;101518.41;7392767;19;20027;-62
2023/08/19 04:42:21;;;;;;;17.30;14.43;;;;;;;20.91;83.74;101520.28;7391746;19;20022;-62
2023/08/19 04:44:48;;;;;;;16.35;13.90;;;;;;;20.89;83.75;101522.28;7393246;19;20019;-65
2023/08/19 04:47:15;;;;;;;17.67;14.98;;;;;;;20.87;84.08;101529.69;7392559;19;20479;-63
2023/08/19 04:49:43;;;;;;;17.20;14.20;;;;;;;20.86;83.98;101533.34;7392628;19;20018;-64
2023/08/19 04:52:11;;;;;;;17.08;15.00;;;;;;;20.88;84.16;101528.66;7390753;19;20023;-63
2023/08/19 04:54:38;;;;;;;17.50;14.15;;;;;;;20.95;83.97;101528.88;7392162;19;20017;-62
2023/08/19 04:57:05;;;;;;;15.75;13.90;;;;;;;20.97;83.69;101529.53;7392258;19;20014;-62
2023/08/19 04:59:33;;;;;;;17.13;14.70;;;;;;;20.99;83.92;101532.09;7392642;19;20042;-62
2023/08/19 05:02:01;;;;;;;18.25;15.32;;;;;;;21.02;83.62;101529.88;7390499;19;20476;-65
2023/08/19 05:04:28;;;;;;;17.23;15.38;;;;;;;21.04;84.04;101530.59;7394062;19;20049;-66
2023/08/19 05:06:56;;;;;;;20.17;15.90;;;;;;;21.07;84.07;101534.81;7389081;19;20022;-65
2023/08/19 05:09:23;;;;;;;19.85;15.30;;;;;;;20.99;84.35;101538.31;7390158;19;20038;-64
2023/08/19 05:11:51;;;;;;;16.67;14.82;;;;;;;20.96;84.45;101537.78;7388308;19;20022;-69
2023/08/19 05:14:18;;;;;;;17.77;15.60;;;;;;;21.02;84.44;101531.75;7390020;19;20010;-68
2023/08/19 05:16:46;;;;;;;18.88;15.10;;;;;;;21.08;84.44;101536.50;7392248;19;20023;-63
2023/08/19 05:19:18;;;;;;;16.80;14.45;;;;;;;21.13;84.11;101537.66;7397164;19;20027;-66
2023/08/19 05:21:48;;;;;;;20.27;15.68;;;;;;;21.06;84.84;101533.97;7395382;19;20022;-68
2023/08/19 05:24:16;;;;;;;18.58;15.63;;;;;;;21.16;84.28;101542.75;7397306;19;20022;-64
2023/08/19 05:26:44;;;;;;;17.33;14.85;;;;;;;21.24;84.50;101541.94;7395859;19;20783;-66
2023/08/19 05:29:12;;;;;;;20.27;15.90;;;;;;;21.23;84.15;101539.41;7397163;19;20014;-66
2023/08/19 05:31:41;;;;;;;18.10;15.82;;;;;;;21.25;84.62;101542.75;7392843;19;20014;-65
2023/08/19 05:34:09;;;;;;;17.88;15.77;;;;;;;21.27;84.57;101538.91;7396868;19;20086;-61
2023/08/19 05:36:37;;;;;;;21.27;16.73;;;;;;;21.36;84.54;101540.63;7396031;19;20018;-62
2023/08/19 05:39:04;;;;;;;19.17;17.08;;;;;;;21.47;84.24;101550.28;7396241;19;20015;-62
2023/08/19 05:41:32;;;;;;;20.33;17.67;;;;;;;21.59;84.61;101548.94;7394248;19;20014;-65
2023/08/19 05:44:00;;;;;;;21.42;19.13;;;;;;;21.66;83.97;101549.13;7395152;19;20070;-67
2023/08/19 05:46:28;;;;;;;21.95;19.52;;;;;;;21.75;84.12;101548.16;7395081;19;20035;-66
2023/08/19 05:48:56;;;;;;;22.33;19.90;;;;;;;21.83;83.91;101542.75;7394496;19;20492;-64
2023/08/19 05:51:23;;;;;;;21.48;18.88;;;;;;;21.91;83.95;101550.00;7392967;19;20080;-61
2023/08/19 05:53:58;;;;;;;23.55;18.27;;;;;;;21.98;83.97;101548.34;7393359;19;20539;-61
2023/08/19 05:56:25;;;;;;;22.60;19.55;;;;;;;21.96;84.12;101546.81;7396025;19;20023;-61
2023/08/19 05:58:54;;;;;;;23.27;19.15;;;;;;;22.04;83.65;101555.75;7397434;19;20485;-60
2023/08/19 06:01:21;;;;;;;22.90;18.48;;;;;;;22.08;83.92;101554.38;7394595;19;20043;-59
2023/08/19 06:03:51;;;;;;;23.55;19.88;;;;;;;22.12;83.66;101554.91;7394442;19;20089;-61
2023/08/19 06:06:19;;;;;;;21.48;17.85;;;;;;;22.18;83.50;101550.72;7395304;19;20283;-60
2023/08/19 06:08:46;;;;;;;21.77;18.80;;;;;;;22.23;83.90;101553.75;7395531;19;20027;-60
2023/08/19 06:11:14;;;;;;;22.35;18.63;;;;;;;22.27;83.53;101558.63;7392629;19;20022;-60
2023/08/19 06:13:41;;;;;;;21.33;18.80;;;;;;;22.27;83.70;101558.63;7396080;19;20010;-60
2023/08/19 06:16:09;;;;;;;22.05;18.20;;;;;;;22.27;83.60;101557.78;7395328;19;20039;-61
2023/08/19 06:18:36;;;;;;;19.88;17.75;;;;;;;22.28;83.42;101552.22;7393875;19;20094;-61
2023/08/19 06:21:04;;;;;;;21.17;18.10;;;;;;;22.31;83.50;101551.03;7393750;19;20025;-61
2023/08/19 06:23:32;;;;;;;21.55;18.35;;;;;;;22.32;83.02;101552.72;7393306;19;20018;-61
2023/08/19 06:26:00;;;;;;;22.25;18.73;;;;;;;22.35;83.51;101549.69;7392931;19;20025;-61
2023/08/19 06:28:28;;;;;;;21.77;18.20;;;;;;;22.33;83.48;101546.31;7392916;19;20104;-61
2023/08/19 06:30:56;;;;;;;22.55;18.13;;;;;;;22.36;82.97;101554.06;7392895;19;20019;-61
2023/08/19 06:33:24;;;;;;;20.77;18.13;;;;;;;22.43;82.76;101557.75;7395136;19;20014;-61
2023/08/19 06:35:56;;;;;;;21.77;18.45;;;;;;;22.51;82.18;101557.78;7393889;19;20032;-61
2023/08/19 06:38:27;;;;;;;20.52;17.55;;;;;;;22.51;82.32;101565.88;7392607;19;20019;-61
2023/08/19 06:41:09;;;;;;;20.63;18.40;;;;;;;22.55;82.23;101560.94;7394165;19;20074;-61
2023/08/19 06:43:38;;;;;;;20.95;18.23;;;;;;;22.52;82.70;101566.72;7391087;19;20086;-61
2023/08/19 06:46:07;;;;;;;20.65;17.73;;;;;;;22.56;82.48;101558.09;7393823;19;20059;-61
2023/08/19 06:48:35;;;;;;;22.58;18.20;;;;;;;22.59;81.97;101565.00;7394591;19;20025;-61
2023/08/19 06:51:03;;;;;;;20.17;17.00;;;;;;;22.66;81.99;101565.97;7393718;19;20484;-61
2023/08/19 06:53:31;;;;;;;20.73;17.58;;;;;;;22.67;82.05;101570.38;7394045;19;20018;-61
2023/08/19 06:56:23;;;;;;;20.23;17.92;;;;;;;22.80;81.58;101572.53;7391707;19;20387;-61
2023/08/19 06:59:23;;;;;;;21.90;17.67;;;;;;;22.83;81.52;101574.91;7396143;19;20015;-62
2023/08/19 07:01:56;;;;;;;19.85;17.70;;;;;;;22.80;82.03;101578.78;7390632;19;20030;-61
2023/08/19 07:04:27;;;;;;;19.90;17.77;;;;;;;22.82;81.65;101567.81;7392076;19;20018;-61
2023/08/19 07:07:00;;;;;;;19.55;17.45;;;;;;;22.89;81.24;101568.78;7393259;19;20022;-61
2023/08/19 07:09:28;;;;;;;22.10;18.15;;;;;;;22.93;81.40;101562.06;7393181;19;20022;-61
2023/08/19 07:11:57;;;;;;;20.65;17.52;;;;;;;22.98;80.72;101561.56;7392136;19;20018;-61
2023/08/19 07:14:25;;;;;;;21.05;17.38;;;;;;;23.05;80.31;101563.38;7393303;19;20018;-61
2023/08/19 07:16:58;;;;;;;21.15;17.55;;;;;;;23.08;80.31;101564.88;7392810;19;20025;-60
2023/08/19 07:19:34;;;;;;;19.83;16.47;;;;;;;23.10;80.48;101552.88;7393579;19;20035;-61
2023/08/19 07:22:02;;;;;;;20.08;16.75;;;;;;;23.06;80.15;101546.13;7389777;19;20043;-61
2023/08/19 07:24:31;;;;;;;18.52;16.15;;;;;;;23.07;80.20;101531.59;7393777;19;20025;-60
2023/08/19 07:27:04;;;;;;;19.63;16.30;;;;;;;23.13;79.77;101538.19;7392235;19;20030;-61
2023/08/19 07:29:31;;;;;;;18.67;16.38;;;;;;;23.10;79.56;101544.78;7392768;19;20040;-61
2023/08/19 07:32:01;;;;;;;21.65;16.00;;;;;;;23.13;79.37;101554.41;7390996;19;20112;-62
2023/08/19 07:34:29;;;;;;;19.05;16.40;;;;;;;23.16;79.81;101551.34;7392903;19;20092;-62
2023/08/19 07:36:56;;;;;;;20.13;15.88;;;;;;;23.23;79.55;101559.56;7390128;19;20015;-61
2023/08/19 07:39:25;;;;;;;19.98;15.73;;;;;;;23.32;78.85;101548.56;7390935;19;20019;-61
2023/08/19 07:41:53;;;;;;;19.88;16.33;;;;;;;23.42;78.98;101547.47;7391662;19;20018;-61
2023/08/19 07:44:20;;;;;;;17.58;15.55;;;;;;;23.46;78.45;101555.03;7391195;19;20011;-61
2023/08/19 07:46:47;;;;;;;19.05;15.48;;;;;;;23.50;78.77;101544.72;7391778;19;20118;-60
2023/08/19 07:49:15;;;;;;;20.92;15.18;;;;;;;23.56;77.79;101550.25;7391991;19;20011;-60
2023/08/19 07:51:42;;;;;;;17.40;15.27;;;;;;;23.63;77.79;101549.56;7389495;19;20015;-60
2023/08/19 07:54:09;;;;;;;18.50;14.90;;;;;;;23.76;76.93;101556.06;7392222;19;20018;-60
2023/08/19 07:56:37;;;;;;;19.05;15.32;;;;;;;23.92;76.78;101548.84;7391100;19;20015;-61
2023/08/19 07:59:04;;;;;;;20.23;16.00;;;;;;;23.98;76.69;101548.13;7394148;19;20022;-61
2023/08/19 08:01:32;;;;;;;18.30;15.15;;;;;;;23.93;76.77;101556.81;7391300;19;20066;-61
2023/08/19 08:03:59;;;;;;;18.35;15.73;;;;;;;23.81;77.26;101552.81;7389591;19;20015;-61
2023/08/19 08:06:27;;;;;;;18.15;14.77;;;;;;;23.75;78.15;101543.56;7391413;19;20102;-61
2023/08/19 08:08:54;;;;;;;19.15;15.15;;;;;;;23.78;77.74;101543.22;7391602;19;20014;-63
2023/08/19 08:11:22;;;;;;;18.60;14.88;;;;;;;23.91;77.82;101549.88;7390772;19;20508;-61
2023/08/19 08:13:50;;;;;;;18.58;14.85;;;;;;;23.90;77.71;101551.75;7391775;19;20022;-58
2023/08/19 08:16:17;;;;;;;17.27;14.50;;;;;;;23.96;77.49;101555.56;7389042;19;20026;-59
2023/08/19 08:18:44;;;;;;;16.80;14.05;;;;;;;23.93;77.08;101561.38;7391394;19;20023;-59
2023/08/19 08:21:13;;;;;;;16.75;14.80;;;;;;;23.91;76.80;101553.44;7391453;19;20068;-62
2023/08/19 08:23:41;;;;;;;16.98;13.90;;;;;;;23.92;76.65;101559.66;7390111;19;20417;-60
2023/08/19 08:26:09;;;;;;;17.77;14.00;;;;;;;23.96;76.52;101564.56;7390846;19;20035;-60
2023/08/19 08:28:36;;;;;;;17.27;14.45;;;;;;;23.99;76.58;101558.75;7391802;19;20018;-61
2023/08/19 08:31:04;;;;;;;17.23;14.07;;;;;;;24.02;76.28;101554.88;7390133;19;20015;-60
2023/08/19 08:33:31;;;;;;;16.88;14.50;;;;;;;24.10;76.13;101551.25;7390556;19;20018;-61
2023/08/19 08:36:00;;;;;;;14.90;12.85;;;;;;;24.19;76.27;101550.13;7390407;19;20014;-61
2023/08/19 08:38:28;;;;;;;16.52;14.25;;;;;;;24.26;75.80;101545.69;7390866;19;20086;-61
2023/08/19 08:41:01;;;;;;;16.90;14.43;;;;;;;24.30;76.18;101549.69;7390324;19;20022;-62
2023/08/19 08:43:33;;;;;;;18.10;14.05;;;;;;;24.34;74.84;101559.13;7389557;19;20011;-61
2023/08/19 08:46:00;;;;;;;15.93;13.68;;;;;;;24.41;74.94;101551.16;7388410;19;20022;-61
2023/08/19 08:48:31;;;;;;;15.68;13.27;;;;;;;24.45;74.65;101556.00;7390950;19;20029;-62
2023/08/19 08:50:59;;;;;;;16.23;13.30;;;;;;;24.44;74.82;101554.34;7394538;19;20060;-62
2023/08/19 08:53:29;;;;;;;17.67;13.85;;;;;;;24.43;75.12;101547.25;7398281;19;20014;-61
2023/08/19 08:55:58;;;;;;;16.40;13.32;;;;;;;24.52;75.68;101545.28;7395899;19;20018;-61
2023/08/19 08:58:25;;;;;;;17.05;13.07;;;;;;;24.56;75.35;101542.00;7398650;19;20010;-61
2023/08/19 09:00:54;;;;;;;15.18;12.95;;;;;;;24.69;75.25;101549.50;7397208;19;20023;-61
2023/08/19 09:03:25;;;;;;;15.70;12.90;;;;;;;24.96;74.23;101545.28;7395907;19;20492;-61
2023/08/19 09:05:57;;;;;;;18.10;13.45;;;;;;;24.94;73.33;101551.94;7397093;19;20044;-61
2023/08/19 09:08:31;;;;;;;15.13;13.27;;;;;;;24.89;73.75;101557.09;7397600;19;20029;-61
2023/08/19 09:11:02;;;;;;;15.75;13.65;;;;;;;24.96;73.74;101553.44;7396986;19;20023;-62
2023/08/19 09:13:30;;;;;;;16.38;12.80;;;;;;;25.10;73.22;101551.75;7397578;19;20495;-58
2023/08/19 09:15:58;;;;;;;16.80;12.25;;;;;;;25.25;72.96;101557.16;7397101;19;20019;-59
2023/08/19 09:18:26;;;;;;;15.10;11.38;;;;;;;25.36;71.76;101561.25;7397169;19;20029;-59
2023/08/19 09:20:53;;;;;;;15.85;12.27;;;;;;;25.32;71.39;101562.66;7396820;19;20029;-59
2023/08/19 09:23:21;;;;;;;14.38;11.38;;;;;;;25.39;71.88;101552.72;7396057;19;20020;-60
2023/08/19 09:25:48;;;;;;;18.25;14.75;;;;;;;25.37;71.32;101550.19;7396579;19;20021;-60
2023/08/19 09:28:17;;;;;;;16.67;12.50;;;;;;;25.34;71.29;101556.03;7397404;19;20516;-60
2023/08/19 09:30:44;;;;;;;23.40;15.85;;;;;;;25.47;71.56;101553.44;7395959;19;20029;-60
2023/08/19 09:33:18;;;;;;;20.38;15.98;;;;;;;25.66;71.22;101548.44;7396911;19;20014;-61
2023/08/19 09:35:54;;;;;;;18.13;14.45;;;;;;;25.72;70.65;101548.50;7396317;19;20026;-62
2023/08/19 09:38:26;;;;;;;15.98;13.77;;;;;;;25.76;70.05;101546.25;7396660;19;20019;-61
2023/08/19 09:40:58;;;;;;;14.48;12.23;;;;;;;25.80;70.35;101536.72;7395400;19;20018;-61
2023/08/19 09:43:26;;;;;;;15.70;12.88;;;;;;;25.84;70.71;101539.88;7395997;19;20032;-63
2023/08/19 09:46:00;;;;;;;17.33;13.57;;;;;;;25.86;70.43;101543.22;7395283;19;20035;-62
2023/08/19 09:48:28;;;;;;;16.13;13.27;;;;;;;25.85;70.70;101549.69;7396780;19;20019;-62
2023/08/19 09:50:55;;;;;;;15.35;13.10;;;;;;;25.90;70.87;101542.63;7395666;19;20020;-62
2023/08/19 09:53:27;;;;;;;16.67;13.23;;;;;;;25.98;70.35;101542.50;7396205;19;20557;-61
2023/08/19 09:55:55;;;;;;;14.77;12.13;;;;;;;25.94;70.28;101543.91;7395525;19;20021;-61
2023/08/19 09:58:22;;;;;;;14.93;12.52;;;;;;;25.98;69.98;101544.38;7396635;19;20010;-60
2023/08/19 10:00:50;;;;;;;15.77;12.63;;;;;;;25.99;70.01;101543.34;7393433;19;20085;-58
2023/08/19 10:03:18;;;;;;;14.45;12.48;;;;;;;26.00;70.06;101539.59;7393531;19;20022;-60
2023/08/19 10:05:52;;;;;;;15.40;12.45;;;;;;;26.04;70.42;101535.47;7395507;19;20018;-60
2023/08/19 10:08:23;;;;;;;18.00;12.43;;;;;;;26.11;69.58;101540.94;7395684;19;20079;-60
2023/08/19 10:10:50;;;;;;;14.63;12.65;;;;;;;26.14;69.60;101541.41;7395465;19;20014;-59
2023/08/19 10:13:21;;;;;;;14.48;11.88;;;;;;;26.25;70.18;101534.56;7395640;19;20028;-62
2023/08/19 10:15:51;;;;;;;14.95;11.38;;;;;;;26.28;69.50;101530.63;7392865;19;20014;-63
2023/08/19 10:18:24;;;;;;;16.02;11.88;;;;;;;26.41;69.34;101531.56;7395138;19;20021;-60
2023/08/19 10:20:58;;;;;;;15.18;11.93;;;;;;;26.52;69.83;101532.06;7395536;19;20022;-59
2023/08/19 10:23:27;;;;;;;14.55;12.18;;;;;;;26.64;69.26;101525.06;7394444;19;20018;-59
2023/08/19 10:25:55;;;;;;;14.70;12.25;;;;;;;26.62;68.90;101530.69;7393540;19;20074;-60
2023/08/19 10:28:29;;;;;;;13.93;11.50;;;;;;;26.64;68.63;101525.06;7393328;19;20023;-59
2023/08/19 10:31:12;;;;;;;13.32;10.93;;;;;;;26.69;68.31;101520.69;7393126;19;20023;-58
2023/08/19 10:33:46;;;;;;;16.70;11.55;;;;;;;26.53;68.17;101517.47;7394895;19;20018;-61
2023/08/19 10:36:18;;;;;;;13.40;10.82;;;;;;;26.46;68.06;101507.38;7394454;19;20010;-59
2023/08/19 10:38:58;;;;;;;14.43;10.80;;;;;;;26.52;67.21;101507.63;7395386;19;20039;-60
2023/08/19 10:41:38;;;;;;;14.43;10.40;;;;;;;26.64;67.42;101497.88;7394059;19;20022;-59
2023/08/19 10:44:11;;;;;;;14.73;10.85;;;;;;;26.64;67.60;101493.28;7392982;19;20014;-59
2023/08/19 10:46:45;;;;;;;12.85;10.93;;;;;;;26.70;68.31;101492.47;7393965;19;20019;-60
2023/08/19 10:49:19;;;;;;;14.70;11.27;;;;;;;26.68;67.41;101491.84;7395139;19;20476;-59
2023/08/19 10:51:51;;;;;;;14.80;11.20;;;;;;;26.62;67.62;101494.53;7392813;19;20031;-59
2023/08/19 10:54:47;;;;;;;17.52;11.50;;;;;;;26.71;67.05;101491.44;7394143;19;20030;-61
2023/08/19 10:57:18;;;;;;;16.75;11.38;;;;;;;26.74;67.31;101487.47;7392751;19;20053;-59
2023/08/19 10:59:47;;;;;;;12.93;11.10;;;;;;;26.81;67.41;101480.19;7395642;19;20095;-59
2023/08/19 11:02:15;;;;;;;13.77;11.30;;;;;;;26.87;67.17;101482.09;7391536;19;20472;-59
2023/08/19 11:04:46;;;;;;;15.88;10.82;;;;;;;26.86;67.04;101488.56;7392196;19;20018;-59
2023/08/19 11:07:14;;;;;;;13.73;11.02;;;;;;;26.85;67.19;101483.34;7391502;19;20078;-59
2023/08/19 11:09:43;;;;;;;15.40;10.60;;;;;;;26.85;66.91;101495.03;7394224;19;20018;-59
2023/08/19 11:12:14;;;;;;;12.55;10.13;;;;;;;26.83;67.32;101489.00;7391580;19;20495;-60
2023/08/19 11:14:47;;;;;;;13.73;11.05;;;;;;;26.82;67.49;101491.88;7389133;19;20018;-60
2023/08/19 11:17:15;;;;;;;14.40;10.77;;;;;;;26.78;67.35;101491.47;7392834;19;20018;-60
2023/08/19 11:19:46;;;;;;;15.48;10.70;;;;;;;26.78;67.18;101496.06;7393298;19;20022;-60